Time,TemperatureF,DewpointF,PressureIn,WindDirection,WindDirectionDegrees,WindSpeedMPH,WindSpeedGustMPH,Humidity,HourlyPrecipIn,Conditions,Clouds,dailyrainin,SoftwareType,DateUTC
2013-03-04 06:59:00,43.5,-99.9,30.11,NE,55,6.0,-999.0,0,-99.99,,,0.00,weatherlink.com 1.10,2013-03-04 14:59:00,
2013-03-04 07:09:00,44.1,-99.9,30.11,NE,49,4.0,-999.0,0,-99.99,,,0.00,weatherlink.com 1.10,2013-03-04 15:09:00,
2013-03-04 07:24:00,44.3,-99.9,30.11,NE,55,4.0,-999.0,0,-99.99,,,0.00,weatherlink.com 1.10,2013-03-04 15:24:00,
2013-03-04 07:39:00,44.8,-99.9,30.13,NE,45,1.0,-999.0,0,-99.99,,,0.00,weatherlink.com 1.10,2013-03-04 15:39:00,
2013-03-04 07:54:00,44.9,-99.9,30.13,NE,53,3.0,-999.0,0,-99.99,,,0.00,weatherlink.com 1.10,2013-03-04 15:54:00,
2013-03-04 08:09:00,45.2,-99.9,30.13,NE,44,3.0,-999.0,0,-99.99,,,0.00,weatherlink.com 1.10,2013-03-04 16:09:00,
2013-03-04 08:24:00,45.7,-99.9,30.13,NE,44,2.0,-999.0,0,-99.99,,,0.00,weatherlink.com 1.10,2013-03-04 16:24:00,
2013-03-04 08:39:00,46.1,-99.9,30.14,NE,38,3.0,-999.0,0,-99.99,,,0.00,weatherlink.com 1.10,2013-03-04 16:39:00,
2013-03-04 08:54:00,46.6,-99.9,30.14,NE,38,0.0,-999.0,0,-99.99,,,0.00,weatherlink.com 1.10,2013-03-04 16:54:00,
2013-03-04 09:09:00,46.9,-99.9,30.13,NE,38,0.0,-999.0,0,-99.99,,,0.00,weatherlink.com 1.10,2013-03-04 17:09:00,
2013-03-04 09:24:00,47.3,-99.9,30.13,NE,38,0.0,-999.0,0,-99.99,,,0.00,weatherlink.com 1.10,2013-03-04 17:24:00,
2013-03-04 09:39:00,47.9,-99.9,30.14,NE,38,1.0,-999.0,0,-99.99,,,0.00,weatherlink.com 1.10,2013-03-04 17:39:00,
2013-03-04 09:54:00,48.6,-99.9,30.14,WSW,254,0.0,-999.0,0,-99.99,,,0.00,weatherlink.com 1.10,2013-03-04 17:54:00,
2013-03-04 10:09:00,48.9,-99.9,30.14,SW,227,2.0,-999.0,0,-99.99,,,0.00,weatherlink.com 1.10,2013-03-04 18:09:00,
2013-03-04 10:24:00,49.7,-99.9,30.14,West,276,0.0,-999.0,0,-99.99,,,0.00,weatherlink.com 1.10,2013-03-04 18:24:00,
2013-03-04 10:39:00,50.2,-99.9,30.14,West,280,7.0,-999.0,0,-99.99,,,0.00,weatherlink.com 1.10,2013-03-04 18:39:00,
2013-03-04 10:54:00,50.8,-99.9,30.13,WNW,293,1.0,-999.0,0,-99.99,,,0.00,weatherlink.com 1.10,2013-03-04 18:54:00,
2013-03-04 11:09:00,51.6,-99.9,30.14,SSW,209,3.0,-999.0,0,-99.99,,,0.00,weatherlink.com 1.10,2013-03-04 19:09:00,
2013-03-04 11:24:00,52.5,-99.9,30.13,WSW,249,1.0,-999.0,0,-99.99,,,0.00,weatherlink.com 1.10,2013-03-04 19:24:00,
2013-03-04 11:39:00,54.3,-99.9,30.12,SW,227,4.0,-999.0,0,-99.99,,,0.00,weatherlink.com 1.10,2013-03-04 19:39:00,
2013-03-04 11:54:00,55.1,-99.9,30.12,SSW,205,5.0,-999.0,0,-99.99,,,0.00,weatherlink.com 1.10,2013-03-04 19:54:00,
2013-03-04 12:09:00,55.1,1.0,30.12,SW,215,6.0,-999.0,11,-99.99,,,0.00,weatherlink.com 1.10,2013-03-04 20:09:00,
2013-03-04 12:24:00,54.3,-20.0,30.12,SSW,198,3.0,-999.0,4,-99.99,,,0.00,weatherlink.com 1.10,2013-03-04 20:24:00,
2013-03-04 12:39:00,53.6,-99.9,30.12,WNW,286,6.0,-999.0,-999,-99.99,,,0.00,weatherlink.com 1.10,2013-03-04 20:39:00,
2013-03-04 12:54:00,53.2,-46.0,30.12,West,279,4.0,-999.0,1,-99.99,,,0.00,weatherlink.com 1.10,2013-03-04 20:54:00,
2013-03-04 13:09:00,52.6,-99.9,30.12,West,259,4.0,-999.0,0,-99.99,,,0.00,weatherlink.com 1.10,2013-03-04 21:09:00,
2013-03-04 13:24:00,52.4,-22.0,30.12,West,275,5.0,-999.0,4,-99.99,,,0.00,weatherlink.com 1.10,2013-03-04 21:24:00,
2013-03-04 13:39:00,53.0,-13.0,30.11,WNW,288,4.0,-999.0,6,-99.99,,,0.00,weatherlink.com 1.10,2013-03-04 21:39:00,
2013-03-04 13:54:00,53.3,-5.0,30.11,West,277,2.0,-999.0,9,-99.99,,,0.00,weatherlink.com 1.10,2013-03-04 21:54:00,
2013-03-04 14:09:00,53.5,0.0,30.11,West,264,6.0,-999.0,11,-99.99,,,0.00,weatherlink.com 1.10,2013-03-04 22:09:00,
2013-03-04 14:24:00,52.0,-17.0,30.10,SW,220,2.0,-999.0,5,-99.99,,,0.00,weatherlink.com 1.10,2013-03-04 22:24:00,
2013-03-04 14:39:00,53.5,-16.0,30.11,West,264,4.0,-999.0,5,-99.99,,,0.00,weatherlink.com 1.10,2013-03-04 22:39:00,
2013-03-04 14:54:00,53.3,0.0,30.11,SW,236,4.0,-999.0,11,-99.99,,,0.00,weatherlink.com 1.10,2013-03-04 22:54:00,
2013-03-04 15:09:00,53.2,0.0,30.11,WSW,241,3.0,-999.0,11,-99.99,,,0.00,weatherlink.com 1.10,2013-03-04 23:09:00,
2013-03-04 15:24:00,53.2,-2.0,30.11,WSW,248,2.0,-999.0,10,-99.99,,,0.00,weatherlink.com 1.10,2013-03-04 23:24:00,
2013-03-04 15:39:00,52.6,-17.0,30.11,WSW,251,5.0,-999.0,5,-99.99,,,0.00,weatherlink.com 1.10,2013-03-04 23:39:00,
2013-03-04 15:54:00,51.9,-14.0,30.10,WSW,240,2.0,-999.0,6,-99.99,,,0.00,weatherlink.com 1.10,2013-03-04 23:54:00,
2013-03-04 16:09:00,51.9,-14.0,30.09,SW,234,4.0,-999.0,6,-99.99,,,0.00,weatherlink.com 1.10,2013-03-05 00:09:00,
2013-03-04 16:24:00,51.5,-18.0,30.10,SW,227,2.0,-999.0,5,-99.99,,,0.00,weatherlink.com 1.10,2013-03-05 00:24:00,
2013-03-04 16:39:00,51.5,-18.0,30.09,West,280,6.0,-999.0,5,-99.99,,,0.00,weatherlink.com 1.10,2013-03-05 00:39:00,
2013-03-04 16:54:00,51.3,-14.0,30.09,WSW,238,5.0,-999.0,6,-99.99,,,0.00,weatherlink.com 1.10,2013-03-05 00:54:00,
2013-03-04 17:09:00,51.0,-28.0,30.09,WNW,284,0.0,-999.0,3,-99.99,,,0.00,weatherlink.com 1.10,2013-03-05 01:09:00,
2013-03-04 17:24:00,51.0,-28.0,30.08,NNW,328,0.0,-999.0,3,-99.99,,,0.00,weatherlink.com 1.10,2013-03-05 01:24:00,
2013-03-04 17:39:00,50.8,-9.0,30.08,West,271,2.0,-999.0,8,-99.99,,,0.00,weatherlink.com 1.10,2013-03-05 01:39:00,
2013-03-04 17:54:00,50.3,-7.0,30.07,West,271,0.0,-999.0,9,-99.99,,,0.00,weatherlink.com 1.10,2013-03-05 01:54:00,
2013-03-04 18:09:00,49.6,-13.0,30.08,West,271,0.0,-999.0,7,-99.99,,,0.00,weatherlink.com 1.10,2013-03-05 02:09:00,
2013-03-04 18:24:00,48.0,-99.9,30.07,West,271,0.0,-999.0,0,-99.99,,,0.00,weatherlink.com 1.10,2013-03-05 02:24:00,
2013-03-04 18:39:00,46.5,-99.9,30.07,North,360,1.0,-999.0,0,-99.99,,,0.00,weatherlink.com 1.10,2013-03-05 02:39:00,
2013-03-04 18:54:00,45.8,-99.9,30.07,North,360,0.0,-999.0,0,-99.99,,,0.00,weatherlink.com 1.10,2013-03-05 02:54:00,
2013-03-04 19:09:00,45.2,-99.9,30.07,NNE,15,0.0,-999.0,0,-99.99,,,0.00,weatherlink.com 1.10,2013-03-05 03:09:00,
2013-03-04 19:24:00,44.6,-99.9,30.08,NE,40,2.0,-999.0,0,-99.99,,,0.00,weatherlink.com 1.10,2013-03-05 03:24:00,
2013-03-04 19:39:00,44.1,-99.9,30.08,ENE,57,2.0,-999.0,0,-99.99,,,0.00,weatherlink.com 1.10,2013-03-05 03:39:00,
2013-03-04 19:54:00,43.4,-99.9,30.08,NE,55,2.0,-999.0,0,-99.99,,,0.00,weatherlink.com 1.10,2013-03-05 03:54:00,
2013-03-04 20:09:00,43.1,-99.9,30.08,ENE,57,4.0,-999.0,0,-99.99,,,0.00,weatherlink.com 1.10,2013-03-05 04:09:00,
2013-03-04 20:24:00,42.8,-99.9,30.08,NE,56,4.0,-999.0,0,-99.99,,,0.00,weatherlink.com 1.10,2013-03-05 04:24:00,
2013-03-04 20:39:00,42.4,-99.9,30.08,NE,55,5.0,-999.0,0,-99.99,,,0.00,weatherlink.com 1.10,2013-03-05 04:39:00,
2013-03-04 20:54:00,41.6,-99.9,30.08,ENE,61,6.0,-999.0,0,-99.99,,,0.00,weatherlink.com 1.10,2013-03-05 04:54:00,
2013-03-04 21:09:00,41.0,-99.9,30.08,ENE,63,6.0,-999.0,0,-99.99,,,0.00,weatherlink.com 1.10,2013-03-05 05:09:00,
2013-03-04 21:24:00,41.1,-99.9,30.08,NE,42,6.0,-999.0,0,-99.99,,,0.00,weatherlink.com 1.10,2013-03-05 05:24:00,
2013-03-04 21:39:00,40.2,-99.9,30.07,NE,55,6.0,-999.0,0,-99.99,,,0.00,weatherlink.com 1.10,2013-03-05 05:39:00,
2013-03-04 21:54:00,39.7,-99.9,30.07,NE,44,5.0,-999.0,0,-99.99,,,0.00,weatherlink.com 1.10,2013-03-05 05:54:00,
2013-03-04 22:09:00,39.6,-99.9,30.06,NE,52,10.0,-999.0,0,-99.99,,,0.00,weatherlink.com 1.10,2013-03-05 06:09:00,
2013-03-04 22:24:00,39.8,-99.9,30.05,NE,45,6.0,-999.0,0,-99.99,,,0.00,weatherlink.com 1.10,2013-03-05 06:24:00,
2013-03-04 22:39:00,39.5,-99.9,30.05,ENE,59,6.0,-999.0,0,-99.99,,,0.00,weatherlink.com 1.10,2013-03-05 06:39:00,
2013-03-04 22:54:00,39.3,-99.9,30.05,NE,53,7.0,-999.0,0,-99.99,,,0.00,weatherlink.com 1.10,2013-03-05 06:54:00,
2013-03-04 23:09:00,39.0,-99.9,30.06,NNE,30,7.0,-999.0,0,-99.99,,,0.00,weatherlink.com 1.10,2013-03-05 07:09:00,
2013-03-04 23:24:00,39.3,-99.9,30.05,NE,55,7.0,-999.0,0,-99.99,,,0.00,weatherlink.com 1.10,2013-03-05 07:24:00,
2013-03-04 23:39:00,38.6,-99.9,30.05,ENE,61,7.0,-999.0,0,-99.99,,,0.00,weatherlink.com 1.10,2013-03-05 07:39:00,
2013-03-04 23:54:00,38.7,-99.9,30.05,ENE,57,8.0,-999.0,0,-99.99,,,0.00,weatherlink.com 1.10,2013-03-05 07:54:00,